createdAt,value
2022-11-14T00:01:31.440Z,101199.70
2022-11-14T00:03:59.732Z,101195.52
2022-11-14T00:06:28.024Z,101193.29
2022-11-14T00:08:56.331Z,101198.11
2022-11-14T00:11:24.618Z,101198.58
2022-11-14T00:13:52.941Z,101206.74
2022-11-14T00:16:21.269Z,101208.15
2022-11-14T00:18:49.720Z,101209.73
2022-11-14T00:21:18.174Z,101205.58
2022-11-14T00:23:46.562Z,101207.30
2022-11-14T00:26:15.035Z,101211.77
2022-11-14T00:28:43.362Z,101208.83
2022-11-14T00:31:11.749Z,101204.30
2022-11-14T00:33:40.033Z,101201.84
2022-11-14T00:36:08.741Z,101199.19
2022-11-14T00:38:37.231Z,101195.77
2022-11-14T00:41:06.036Z,101198.22
2022-11-14T00:43:34.412Z,101200.73
2022-11-14T00:46:02.751Z,101194.70
2022-11-14T00:48:31.833Z,101198.67
2022-11-14T00:51:00.350Z,101200.71
2022-11-14T00:53:28.711Z,101202.41
2022-11-14T00:55:56.977Z,101202.67
2022-11-14T00:58:25.335Z,101198.17
2022-11-14T01:00:54.253Z,101191.73
2022-11-14T01:03:22.925Z,101187.21
2022-11-14T01:05:51.920Z,101185.91
2022-11-14T01:08:20.774Z,101191.29
2022-11-14T01:10:51.074Z,101188.42
2022-11-14T01:13:19.689Z,101184.86
2022-11-14T01:15:50.030Z,101180.61
2022-11-14T01:18:21.025Z,101176.48
2022-11-14T01:20:49.696Z,101169.90
2022-11-14T01:23:18.565Z,101167.54
2022-11-14T01:25:47.054Z,101158.91
2022-11-14T01:28:18.686Z,101158.05
2022-11-14T01:30:47.088Z,101163.91
2022-11-14T01:33:15.482Z,101167.75
2022-11-14T01:35:43.828Z,101163.61
2022-11-14T01:38:14.923Z,101149.41
2022-11-14T01:40:45.385Z,101143.84
2022-11-14T01:43:16.504Z,101146.05
2022-11-14T01:45:55.700Z,101139.91
2022-11-14T01:48:36.436Z,101140.05
2022-11-14T01:51:35.764Z,101135.13
2022-11-14T01:54:09.646Z,101134.70
2022-11-14T01:56:45.911Z,101142.65
2022-11-14T01:59:20.239Z,101138.14
2022-11-14T02:01:52.394Z,101137.73
2022-11-14T02:04:34.541Z,101134.95
2022-11-14T02:07:06.205Z,101125.16
2022-11-14T02:09:37.822Z,101120.69
2022-11-14T02:12:10.005Z,101116.90
2022-11-14T02:14:39.869Z,101122.97
2022-11-14T02:17:28.615Z,101120.39
2022-11-14T02:20:05.940Z,101111.73
2022-11-14T02:22:34.279Z,101108.08
2022-11-14T02:25:03.198Z,101100.44
2022-11-14T02:27:33.228Z,101099.41
2022-11-14T02:30:13.406Z,101096.67
2022-11-14T02:35:30.157Z,101087.58
2022-11-14T02:37:58.485Z,101084.98
2022-11-14T02:40:26.837Z,101082.36
2022-11-14T02:42:55.182Z,101084.27
2022-11-14T02:45:24.081Z,101078.23
2022-11-14T02:47:52.599Z,101072.79
2022-11-14T02:50:21.083Z,101074.51
2022-11-14T02:52:49.474Z,101077.19
2022-11-14T02:55:17.810Z,101077.80
2022-11-14T02:57:46.102Z,101080.66
2022-11-14T03:00:15.495Z,101086.69
2022-11-14T03:02:44.079Z,101085.73
2022-11-14T03:05:12.353Z,101083.57
2022-11-14T03:07:40.822Z,101082.05
2022-11-14T03:10:10.065Z,101080.19
2022-11-14T03:12:38.513Z,101083.37
2022-11-14T03:15:07.678Z,101084.64
2022-11-14T03:17:36.011Z,101086.77
2022-11-14T03:20:05.929Z,101085.27
2022-11-14T03:22:34.311Z,101083.27
2022-11-14T03:25:02.686Z,101079.21
2022-11-14T03:27:31.172Z,101081.69
2022-11-14T03:29:59.505Z,101083.09
2022-11-14T03:32:27.862Z,101080.56
2022-11-14T03:34:56.313Z,101081.16
2022-11-14T03:37:24.847Z,101077.80
2022-11-14T03:39:53.150Z,101076.33
2022-11-14T03:42:21.562Z,101070.84
2022-11-14T03:44:49.856Z,101079.20
2022-11-14T03:47:18.218Z,101073.63
2022-11-14T03:49:46.565Z,101077.38
2022-11-14T03:52:14.891Z,101079.05
2022-11-14T03:54:43.230Z,101072.38
2022-11-14T03:57:11.548Z,101067.95
2022-11-14T03:59:40.079Z,101063.63
2022-11-14T04:02:09.002Z,101057.66
2022-11-14T04:04:37.375Z,101057.27
2022-11-14T04:07:06.627Z,101062.27
2022-11-14T04:09:35.274Z,101052.90
2022-11-14T04:12:03.863Z,101054.61
2022-11-14T04:14:32.179Z,101057.88
2022-11-14T04:17:01.065Z,101060.38
2022-11-14T04:19:29.321Z,101058.74
2022-11-14T04:21:57.620Z,101061.09
2022-11-14T04:24:26.016Z,101062.05
2022-11-14T04:26:54.571Z,101058.16
2022-11-14T04:29:23.242Z,101056.69
2022-11-14T04:31:51.765Z,101059.94
2022-11-14T04:34:20.081Z,101065.15
2022-11-14T04:36:51.207Z,101066.64
2022-11-14T04:39:19.662Z,101068.84
2022-11-14T04:41:48.008Z,101065.77
2022-11-14T04:44:16.453Z,101059.21
2022-11-14T04:46:45.025Z,101057.48
2022-11-14T04:49:13.345Z,101063.73
2022-11-14T04:51:41.713Z,101056.63
2022-11-14T04:54:10.053Z,101048.65
2022-11-14T04:56:38.358Z,101044.67
2022-11-14T04:59:06.713Z,101049.91
2022-11-14T05:01:35.017Z,101050.13
2022-11-14T05:04:03.733Z,101037.27
2022-11-14T05:06:32.308Z,101034.23
2022-11-14T05:09:00.747Z,101033.92
2022-11-14T05:11:29.582Z,101024.96
2022-11-14T05:13:57.900Z,101025.45
2022-11-14T05:16:26.326Z,101024.70
2022-11-14T05:18:55.062Z,101025.66
2022-11-14T05:21:23.450Z,101022.98
2022-11-14T05:23:51.770Z,101015.29
2022-11-14T05:26:20.115Z,101012.01
2022-11-14T05:28:48.419Z,101017.21
2022-11-14T05:31:18.043Z,101016.33
2022-11-14T05:33:47.118Z,101013.67
2022-11-14T05:36:16.737Z,101017.41
2022-11-14T05:38:45.075Z,101019.42
2022-11-14T05:41:16.640Z,101020.77
2022-11-14T05:43:45.004Z,101022.85
2022-11-14T05:46:16.072Z,101021.81
2022-11-14T05:48:44.377Z,101018.17
2022-11-14T05:51:13.436Z,101018.88
2022-11-14T05:53:42.014Z,101016.30
2022-11-14T05:56:12.507Z,101015.45
2022-11-14T05:58:40.902Z,101018.48
2022-11-14T06:01:16.673Z,101025.80
2022-11-14T06:03:48.136Z,101032.23
2022-11-14T06:06:20.798Z,101044.32
2022-11-14T06:08:49.741Z,101045.67
2022-11-14T06:11:20.495Z,101046.54
2022-11-14T06:13:48.887Z,101051.34
2022-11-14T06:16:19.543Z,101048.02
2022-11-14T06:18:48.117Z,101048.80
2022-11-14T06:21:20.121Z,101055.36
2022-11-14T06:23:50.070Z,101057.19
2022-11-14T06:26:30.363Z,101052.98
2022-11-14T06:29:00.214Z,101044.56
2022-11-14T06:31:28.798Z,101047.98
2022-11-14T06:33:57.173Z,101046.91
2022-11-14T06:36:25.693Z,101043.02
2022-11-14T06:38:54.204Z,101037.36
2022-11-14T06:41:23.274Z,101041.34
2022-11-14T06:43:54.150Z,101035.73
2022-11-14T06:46:23.243Z,101033.41
2022-11-14T06:48:52.646Z,101037.91
2022-11-14T06:51:21.027Z,101033.59
2022-11-14T06:53:49.504Z,101030.26
2022-11-14T06:56:20.265Z,101026.39
2022-11-14T06:58:50.124Z,101030.23
2022-11-14T07:01:26.164Z,101029.27
2022-11-14T07:03:55.171Z,101021.61
2022-11-14T07:06:27.025Z,101025.55
2022-11-14T07:08:57.470Z,101028.20
2022-11-14T07:11:29.609Z,101022.27
2022-11-14T07:14:02.990Z,101021.80
2022-11-14T07:16:35.362Z,101023.58
2022-11-14T07:19:09.252Z,101026.28
2022-11-14T07:21:37.686Z,101017.80
2022-11-14T07:24:06.500Z,101014.07
2022-11-14T07:26:34.847Z,101012.59
2022-11-14T07:29:03.250Z,101012.83
2022-11-14T07:31:31.649Z,101006.80
2022-11-14T07:34:00.271Z,101001.45
2022-11-14T07:36:28.819Z,100996.84
2022-11-14T07:38:57.637Z,100990.14
2022-11-14T07:41:25.991Z,100994.89
2022-11-14T07:43:54.345Z,100990.98
2022-11-14T07:46:22.762Z,100994.43
2022-11-14T07:48:51.109Z,100989.07
2022-11-14T07:51:20.717Z,100989.58
2022-11-14T07:53:53.133Z,100989.38
2022-11-14T07:56:22.293Z,100994.92
2022-11-14T07:58:50.718Z,100997.66
2022-11-14T08:01:19.148Z,101000.20
2022-11-14T08:03:47.529Z,101001.48
2022-11-14T08:06:16.532Z,101001.47
2022-11-14T08:08:44.997Z,100994.33
2022-11-14T08:11:17.103Z,100986.29
2022-11-14T08:13:51.562Z,100989.17
2022-11-14T08:16:19.904Z,100983.69
2022-11-14T08:18:48.166Z,100985.13
2022-11-14T08:21:16.511Z,100979.59
2022-11-14T08:23:45.436Z,100975.40
2022-11-14T08:26:13.909Z,100968.20
2022-11-14T08:28:42.291Z,100971.48
2022-11-14T08:31:10.923Z,100965.22
2022-11-14T08:33:39.907Z,100967.46
2022-11-14T08:36:10.966Z,100963.70
2022-11-14T08:38:39.273Z,100959.82
2022-11-14T08:41:07.714Z,100961.19
2022-11-14T08:43:36.034Z,100954.52
2022-11-14T08:46:05.495Z,100954.43
2022-11-14T08:48:34.233Z,100947.05
2022-11-14T08:51:05.938Z,100942.93
2022-11-14T08:53:35.114Z,100940.94
2022-11-14T08:56:04.087Z,100939.45
2022-11-14T08:58:33.889Z,100942.04
2022-11-14T09:01:05.021Z,100939.41
2022-11-14T09:03:34.350Z,100939.10
2022-11-14T09:06:03.693Z,100940.72
2022-11-14T09:08:32.354Z,100946.28
2022-11-14T09:11:09.226Z,100940.77
2022-11-14T09:13:38.438Z,100945.30
2022-11-14T09:16:07.338Z,100941.85
2022-11-14T09:18:36.114Z,100935.38
2022-11-14T09:21:07.878Z,100936.14
2022-11-14T09:23:36.859Z,100930.66
2022-11-14T09:26:07.458Z,100932.63
2022-11-14T09:28:36.947Z,100929.15
2022-11-14T09:31:09.933Z,100924.65
2022-11-14T09:33:38.716Z,100923.69
2022-11-14T09:36:11.131Z,100918.55
2022-11-14T09:38:39.449Z,100910.36
2022-11-14T09:41:23.533Z,100906.77
2022-11-14T09:44:10.008Z,100903.05
2022-11-14T09:46:59.287Z,100898.30
2022-11-14T09:49:39.501Z,100900.14
2022-11-14T09:52:39.994Z,100897.31
2022-11-14T09:55:32.224Z,100900.23
2022-11-14T09:58:05.222Z,100901.57
2022-11-14T10:01:11.550Z,100907.88
2022-11-14T10:04:44.134Z,100903.67
2022-11-14T10:07:44.224Z,100900.23
2022-11-14T10:10:25.802Z,100899.13
2022-11-14T10:13:05.128Z,100896.00
2022-11-14T10:15:47.041Z,100899.48
2022-11-14T10:18:44.861Z,100896.40
2022-11-14T10:21:53.091Z,100889.66
2022-11-14T10:25:01.826Z,100880.38
2022-11-14T10:28:05.653Z,100878.58
2022-11-14T10:30:50.704Z,100884.48
2022-11-14T10:33:37.207Z,100880.26
2022-11-14T10:36:21.834Z,100869.36
2022-11-14T10:39:15.289Z,100868.05
2022-11-14T10:41:58.037Z,100863.31
2022-11-14T10:44:43.356Z,100857.36
2022-11-14T10:47:18.591Z,100853.34
2022-11-14T10:49:47.097Z,100853.02
2022-11-14T10:52:21.459Z,100854.76
2022-11-14T10:55:07.155Z,100851.40
2022-11-14T10:57:35.403Z,100854.35
2022-11-14T11:00:17.803Z,100852.84
2022-11-14T11:02:55.727Z,100849.65
2022-11-14T11:05:30.594Z,100836.52
2022-11-14T11:11:30.195Z,100824.61
2022-11-14T11:14:01.443Z,100824.34
2022-11-14T11:16:30.127Z,100822.54
2022-11-14T11:19:25.112Z,100820.98
2022-11-14T11:21:53.454Z,100816.11
2022-11-14T11:24:35.954Z,100809.10
2022-11-14T11:27:20.410Z,100801.39
2022-11-14T11:30:06.004Z,100804.27
2022-11-14T11:32:34.254Z,100800.55
2022-11-14T11:35:12.094Z,100797.45
2022-11-14T11:37:56.144Z,100791.34
2022-11-14T11:40:30.140Z,100784.70
2022-11-14T11:45:55.623Z,100787.55
2022-11-14T11:48:39.019Z,100782.70
2022-11-14T11:51:19.957Z,100781.30
2022-11-14T11:54:03.946Z,100777.64
2022-11-14T11:56:32.926Z,100770.79
2022-11-14T11:59:35.886Z,100771.27
2022-11-14T12:02:22.151Z,100772.20
2022-11-14T12:04:52.686Z,100771.14
2022-11-14T12:07:43.522Z,100765.27
2022-11-14T12:10:23.231Z,100764.34
2022-11-14T12:13:28.822Z,100756.63
2022-11-14T12:16:31.369Z,100754.91
2022-11-14T12:19:32.050Z,100751.07
2022-11-14T12:22:27.442Z,100744.70
2022-11-14T12:25:34.364Z,100749.10
2022-11-14T12:28:26.774Z,100749.28
2022-11-14T12:31:01.480Z,100743.67
2022-11-14T12:33:35.508Z,100740.48
2022-11-14T12:36:10.786Z,100740.20
2022-11-14T12:38:50.693Z,100741.17
2022-11-14T12:41:31.219Z,100740.59
2022-11-14T12:44:27.565Z,100739.23
2022-11-14T12:47:04.969Z,100729.73
2022-11-14T12:49:49.010Z,100733.91
2022-11-14T12:52:51.124Z,100726.63
2022-11-14T12:55:25.280Z,100718.64
2022-11-14T12:58:10.204Z,100720.34
2022-11-14T13:00:46.201Z,100719.14
2022-11-14T13:04:00.383Z,100711.45
2022-11-14T13:07:15.311Z,100714.23
2022-11-14T13:10:12.723Z,100713.70
2022-11-14T13:13:25.241Z,100710.45
2022-11-14T13:16:15.283Z,100709.98
2022-11-14T13:19:18.751Z,100708.91
2022-11-14T13:22:11.628Z,100710.71
2022-11-14T13:24:58.401Z,100701.60
2022-11-14T13:27:52.286Z,100695.95
2022-11-14T13:30:18.201Z,100691.27
2022-11-14T13:32:46.439Z,100694.52
2022-11-14T13:35:50.529Z,100695.58
2022-11-14T13:38:52.407Z,100695.77
2022-11-14T13:41:46.541Z,100687.58
2022-11-14T13:45:08.696Z,100689.27
2022-11-14T13:48:23.522Z,100685.46
2022-11-14T13:51:06.398Z,100683.36
2022-11-14T13:53:46.801Z,100674.39
2022-11-14T13:56:35.325Z,100670.50
2022-11-14T13:59:46.964Z,100667.54
2022-11-14T14:02:29.055Z,100668.81
2022-11-14T14:05:29.942Z,100665.52
2022-11-14T14:08:28.463Z,100663.17
2022-11-14T14:11:24.237Z,100660.52
2022-11-14T14:14:22.791Z,100659.95
2022-11-14T14:17:02.259Z,100661.62
2022-11-14T14:20:15.509Z,100656.10
2022-11-14T14:23:01.776Z,100647.41
2022-11-14T14:26:15.687Z,100647.27
2022-11-14T14:29:03.626Z,100647.27
2022-11-14T14:31:41.327Z,100642.16
2022-11-14T14:34:23.650Z,100635.60
2022-11-14T14:36:55.640Z,100636.10
2022-11-14T14:39:29.051Z,100633.92
2022-11-14T14:41:58.933Z,100631.55
2022-11-14T14:44:40.473Z,100630.48
2022-11-14T14:47:38.147Z,100631.83
2022-11-14T14:50:17.581Z,100631.20
2022-11-14T14:52:45.951Z,100630.92
2022-11-14T14:55:34.678Z,100630.85
2022-11-14T14:58:28.181Z,100631.28
2022-11-14T15:01:06.406Z,100631.35
2022-11-14T15:03:51.665Z,100632.90
2022-11-14T15:06:20.462Z,100637.61
2022-11-14T15:08:49.477Z,100638.33
2022-11-14T15:11:17.977Z,100631.73
2022-11-14T15:13:50.008Z,100634.70
2022-11-14T15:16:19.655Z,100629.12
2022-11-14T15:18:50.576Z,100625.71
2022-11-14T15:21:24.886Z,100622.48
2022-11-14T15:24:16.764Z,100623.63
2022-11-14T15:26:47.515Z,100619.44
2022-11-14T15:29:21.197Z,100615.45
2022-11-14T15:32:00.057Z,100614.22
2022-11-14T15:34:35.922Z,100616.98
2022-11-14T15:37:10.453Z,100616.55
2022-11-14T15:39:39.828Z,100611.50
2022-11-14T15:42:24.485Z,100614.67
2022-11-14T15:44:52.996Z,100610.38
2022-11-14T15:47:27.916Z,100607.27
2022-11-14T15:50:03.843Z,100612.24
2022-11-14T15:52:37.046Z,100609.85
2022-11-14T15:55:21.062Z,100604.81
2022-11-14T15:58:00.875Z,100597.77
2022-11-14T16:00:48.132Z,100595.52
2022-11-14T16:03:22.697Z,100588.27
2022-11-14T16:05:51.052Z,100588.39
2022-11-14T16:08:19.512Z,100586.35
2022-11-14T16:10:47.941Z,100587.07
2022-11-14T16:13:16.357Z,100586.09
2022-11-14T16:15:45.019Z,100588.36
2022-11-14T16:18:15.806Z,100590.98
2022-11-14T16:20:44.124Z,100591.86
2022-11-14T16:23:16.393Z,100592.36
2022-11-14T16:25:44.712Z,100586.84
2022-11-14T16:28:13.148Z,100586.06
2022-11-14T16:30:41.494Z,100588.52
2022-11-14T16:33:09.769Z,100584.73
2022-11-14T16:35:38.432Z,100588.06
2022-11-14T16:38:06.844Z,100585.16
2022-11-14T16:40:35.187Z,100579.09
2022-11-14T16:43:03.535Z,100575.46
2022-11-14T16:45:31.991Z,100574.84
2022-11-14T16:48:00.281Z,100582.52
2022-11-14T16:50:28.656Z,100578.04
2022-11-14T16:52:57.411Z,100580.75
2022-11-14T16:55:25.785Z,100578.31
2022-11-14T16:57:54.248Z,100579.64
2022-11-14T17:00:22.976Z,100580.52
2022-11-14T17:02:51.304Z,100578.04
2022-11-14T17:05:19.631Z,100575.54
2022-11-14T17:07:47.930Z,100574.02
2022-11-14T17:10:16.278Z,100568.47
2022-11-14T17:12:44.686Z,100570.98
2022-11-14T17:15:13.071Z,100571.48
2022-11-14T17:17:46.223Z,100566.95
2022-11-14T17:20:14.556Z,100566.26
2022-11-14T17:22:42.818Z,100564.88
2022-11-14T17:25:11.693Z,100561.61
2022-11-14T17:27:39.997Z,100563.05
2022-11-14T17:30:12.145Z,100566.38
2022-11-14T17:32:40.638Z,100569.48
2022-11-14T17:35:10.154Z,100568.59
2022-11-14T17:37:38.528Z,100569.45
2022-11-14T17:40:12.750Z,100565.98
2022-11-14T17:42:43.688Z,100558.89
2022-11-14T17:45:12.042Z,100558.40
2022-11-14T17:47:40.419Z,100553.60
2022-11-14T17:50:09.561Z,100552.11
2022-11-14T17:52:37.914Z,100549.92
2022-11-14T17:55:06.619Z,100549.95
2022-11-14T17:57:34.937Z,100551.71
2022-11-14T18:00:04.919Z,100554.22
2022-11-14T18:02:33.434Z,100555.15
2022-11-14T18:05:01.799Z,100557.59
2022-11-14T18:07:30.643Z,100560.43
2022-11-14T18:09:59.040Z,100565.23
2022-11-14T18:12:27.342Z,100565.42
2022-11-14T18:14:55.690Z,100570.34
2022-11-14T18:17:24.009Z,100568.73
2022-11-14T18:19:52.504Z,100568.23
2022-11-14T18:22:20.869Z,100565.62
2022-11-14T18:24:49.227Z,100564.73
2022-11-14T18:27:18.014Z,100569.04
2022-11-14T18:29:46.598Z,100569.39
2022-11-14T18:32:15.619Z,100561.76
2022-11-14T18:34:44.121Z,100561.52
2022-11-14T18:37:12.673Z,100563.39
2022-11-14T18:39:40.966Z,100565.92
2022-11-14T18:42:09.360Z,100563.64
2022-11-14T18:44:37.682Z,100560.02
2022-11-14T18:47:06.090Z,100554.92
2022-11-14T18:49:34.459Z,100552.86
2022-11-14T18:52:10.236Z,100548.73
2022-11-14T18:54:41.437Z,100551.16
2022-11-14T18:57:09.732Z,100545.73
2022-11-14T18:59:38.098Z,100540.29
2022-11-14T19:02:06.473Z,100545.81
2022-11-14T19:04:35.178Z,100547.50
2022-11-14T19:07:03.549Z,100547.63
2022-11-14T19:09:31.894Z,100546.47
2022-11-14T19:13:33.035Z,100544.84
2022-11-14T19:16:06.729Z,100546.74
2022-11-14T19:18:35.039Z,100544.55
2022-11-14T19:21:04.147Z,100542.73
2022-11-14T19:23:33.580Z,100542.08
2022-11-14T19:26:02.741Z,100538.45
2022-11-14T19:28:31.073Z,100538.86
2022-11-14T19:31:04.787Z,100534.41
2022-11-14T19:33:34.211Z,100538.64
2022-11-14T19:36:13.769Z,100537.84
2022-11-14T19:38:42.694Z,100535.16
2022-11-14T19:41:21.424Z,100532.16
2022-11-14T19:43:49.724Z,100530.66
2022-11-14T19:46:18.110Z,100525.35
2022-11-14T19:48:46.414Z,100524.04
2022-11-14T19:51:17.796Z,100518.04
2022-11-14T19:53:46.928Z,100512.52
2022-11-14T19:56:19.380Z,100513.77
2022-11-14T19:58:50.934Z,100509.63
2022-11-14T20:01:26.051Z,100510.05
2022-11-14T20:04:03.366Z,100510.48
2022-11-14T20:06:36.079Z,100512.96
2022-11-14T20:09:09.259Z,100512.30
2022-11-14T20:11:38.116Z,100504.66
2022-11-14T20:14:06.660Z,100506.83
2022-11-14T20:16:36.943Z,100503.10
2022-11-14T20:19:05.467Z,100501.56
2022-11-14T20:21:35.363Z,100496.08
2022-11-14T20:24:04.067Z,100498.17
2022-11-14T20:26:32.550Z,100492.01
2022-11-14T20:29:01.203Z,100490.14
2022-11-14T20:31:30.794Z,100489.27
2022-11-14T20:34:00.089Z,100483.45
2022-11-14T20:36:38.981Z,100478.81
2022-11-14T20:39:17.379Z,100482.50
2022-11-14T20:41:45.812Z,100474.05
2022-11-14T20:44:14.497Z,100477.52
2022-11-14T20:46:42.921Z,100476.33
2022-11-14T20:49:11.362Z,100478.39
2022-11-14T20:51:39.736Z,100477.35
2022-11-14T20:54:09.200Z,100479.40
2022-11-14T20:56:37.828Z,100486.56
2022-11-14T20:59:07.283Z,100485.73
2022-11-14T21:01:40.461Z,100479.82
2022-11-14T21:04:11.754Z,100487.09
2022-11-14T21:06:40.374Z,100486.64
2022-11-14T21:09:09.870Z,100487.01
2022-11-14T21:11:38.313Z,100485.33
2022-11-14T21:14:06.638Z,100480.73
2022-11-14T21:16:39.327Z,100484.61
2022-11-14T21:19:08.098Z,100485.90
2022-11-14T21:21:37.898Z,100483.09
2022-11-14T21:24:07.080Z,100478.56
2022-11-14T21:26:39.824Z,100479.60
2022-11-14T21:29:12.782Z,100475.02
2022-11-14T21:31:44.784Z,100472.34
2022-11-14T21:34:18.488Z,100470.67
2022-11-14T21:36:48.420Z,100468.41
2022-11-14T21:39:17.817Z,100460.48
2022-11-14T21:41:48.528Z,100460.45
2022-11-14T21:44:17.922Z,100457.13
2022-11-14T21:46:48.736Z,100455.41
2022-11-14T21:49:17.786Z,100455.10
2022-11-14T21:51:47.188Z,100454.96
2022-11-14T21:54:15.577Z,100458.60
2022-11-14T22:04:29.789Z,100462.41
2022-11-14T22:07:01.387Z,100462.36
2022-11-14T22:09:30.656Z,100459.61
2022-11-14T22:12:00.582Z,100462.60
2022-11-14T22:14:29.692Z,100461.07
2022-11-14T22:16:58.637Z,100466.64
2022-11-14T22:19:26.957Z,100464.83
2022-11-14T22:21:55.435Z,100458.21
2022-11-14T22:24:23.815Z,100452.87
2022-11-14T22:26:52.327Z,100452.22
2022-11-14T22:29:20.644Z,100451.59
2022-11-14T22:31:52.827Z,100452.30
2022-11-14T22:34:21.325Z,100452.65
2022-11-14T22:36:49.800Z,100450.90
2022-11-14T22:39:18.108Z,100446.23
2022-11-14T22:41:46.943Z,100443.30
2022-11-14T22:44:15.274Z,100440.90
2022-11-14T22:46:43.627Z,100443.02
2022-11-14T22:49:11.938Z,100448.76
2022-11-14T22:51:40.260Z,100446.00
2022-11-14T22:54:09.369Z,100444.55
2022-11-14T22:56:37.665Z,100447.73
2022-11-14T22:59:06.026Z,100440.17
2022-11-14T23:01:34.395Z,100436.95
2022-11-14T23:04:05.565Z,100436.93
2022-11-14T23:06:34.470Z,100437.07
2022-11-14T23:09:04.603Z,100432.41
2022-11-14T23:11:33.233Z,100433.57
2022-11-14T23:14:02.076Z,100440.73
2022-11-14T23:16:33.562Z,100438.38
2022-11-14T23:19:04.651Z,100429.83
2022-11-14T23:21:36.911Z,100429.60
2022-11-14T23:24:11.662Z,100432.52
2022-11-14T23:26:40.113Z,100432.45
2022-11-14T23:29:14.075Z,100428.57
2022-11-14T23:31:42.503Z,100427.27
2022-11-14T23:34:10.782Z,100427.50
2022-11-14T23:36:39.089Z,100426.36
2022-11-14T23:39:07.500Z,100430.75
2022-11-14T23:41:35.822Z,100427.54
2022-11-14T23:44:04.339Z,100429.68
2022-11-14T23:46:32.662Z,100426.31
2022-11-14T23:49:01.020Z,100422.90
2022-11-14T23:51:29.886Z,100414.71
2022-11-14T23:53:58.224Z,100415.91
2022-11-14T23:56:26.517Z,100409.30
2022-11-14T23:58:54.800Z,100405.11
